Time;durP1;ratioP1;P1;durP2;ratioP2;P2;SDS_P1;SDS_P2;PMS_P1;PMS_P2;Temp;Humidity;BMP_temperature;BMP_pressure;BME280_temperature;BME280_humidity;BME280_pressure;Samples;Min_cycle;Max_cycle;Signal;HPM_P1;HPM_P2
2021/09/06 00:00:00;;;;;;;26.40;19.60;;;;;;;;;;5074229;28;20535;-65
2021/09/06 00:02:28;;;;;;;26.60;18.40;;;;;;;;;;5073493;28;20479;-65
2021/09/06 00:04:56;;;;;;;28.40;19.67;;;;;;;;;;5073721;28;20504;-65
2021/09/06 00:07:23;;;;;;;23.90;18.93;;;;;;;;;;5074143;28;20516;-66
2021/09/06 00:09:58;;;;;;;24.27;18.23;;;;;;;;;;5078069;28;20872;-65
2021/09/06 00:12:25;;;;;;;25.50;19.10;;;;;;;;;;5081022;28;20472;-65
2021/09/06 00:14:52;;;;;;;24.97;18.60;;;;;;;;;;5082110;28;20571;-66
2021/09/06 00:17:20;;;;;;;29.33;20.53;;;;;;;;;;5079879;28;20443;-65
2021/09/06 00:19:47;;;;;;;28.83;20.30;;;;;;;;;;5080297;28;20469;-65
2021/09/06 00:22:16;;;;;;;27.37;22.03;;;;;;;;;;5084904;28;20480;-65
2021/09/06 00:24:43;;;;;;;26.23;19.53;;;;;;;;;;5086704;28;20458;-65
2021/09/06 00:27:10;;;;;;;30.97;21.40;;;;;;;;;;5084173;28;20443;-65
2021/09/06 00:29:37;;;;;;;28.97;24.07;;;;;;;;;;5085024;28;20467;-65
2021/09/06 00:32:04;;;;;;;28.47;20.20;;;;;;;;;;5085432;28;20927;-63
2021/09/06 00:34:32;;;;;;;29.87;20.50;;;;;;;;;;5082482;28;20479;-65
2021/09/06 00:36:59;;;;;;;33.13;23.47;;;;;;;;;;5079488;28;20492;-64
2021/09/06 00:39:27;;;;;;;33.73;23.37;;;;;;;;;;5078464;28;20459;-64
2021/09/06 00:41:55;;;;;;;34.07;23.20;;;;;;;;;;5078030;28;20477;-64
2021/09/06 00:44:22;;;;;;;34.40;24.10;;;;;;;;;;5077251;28;20853;-65
2021/09/06 00:46:51;;;;;;;35.00;23.20;;;;;;;;;;5077304;28;20496;-65
2021/09/06 00:49:19;;;;;;;35.50;22.97;;;;;;;;;;5076897;28;20520;-65
2021/09/06 00:51:46;;;;;;;34.80;23.00;;;;;;;;;;5076437;28;21029;-66
2021/09/06 00:54:14;;;;;;;35.83;23.67;;;;;;;;;;5076204;28;20635;-65
2021/09/06 00:56:43;;;;;;;34.30;25.00;;;;;;;;;;5076662;28;20446;-65
2021/09/06 00:59:10;;;;;;;35.37;24.70;;;;;;;;;;5077661;28;20974;-66
2021/09/06 01:01:38;;;;;;;38.50;24.00;;;;;;;;;;5077106;28;20507;-65
2021/09/06 01:04:05;;;;;;;33.50;22.63;;;;;;;;;;5076141;28;20451;-65
2021/09/06 01:06:33;;;;;;;36.60;24.50;;;;;;;;;;5076216;28;20496;-64
2021/09/06 01:09:00;;;;;;;34.47;24.63;;;;;;;;;;5075932;28;20467;-64
2021/09/06 01:11:27;;;;;;;34.43;23.47;;;;;;;;;;5076318;28;20508;-65
2021/09/06 01:13:56;;;;;;;35.80;23.23;;;;;;;;;;5076219;28;20474;-64
2021/09/06 01:16:24;;;;;;;36.50;23.67;;;;;;;;;;5076053;28;20515;-64
2021/09/06 01:18:51;;;;;;;33.97;23.87;;;;;;;;;;5075833;28;20508;-65
2021/09/06 01:21:18;;;;;;;35.03;23.20;;;;;;;;;;5075658;28;20447;-65
2021/09/06 01:23:45;;;;;;;34.40;24.53;;;;;;;;;;5075724;28;20489;-65
2021/09/06 01:26:14;;;;;;;36.00;24.10;;;;;;;;;;5076121;28;20447;-66
2021/09/06 01:28:41;;;;;;;34.00;23.20;;;;;;;;;;5075892;28;20531;-66
2021/09/06 01:31:08;;;;;;;34.27;23.10;;;;;;;;;;5075844;28;20546;-65
2021/09/06 01:33:36;;;;;;;32.87;23.67;;;;;;;;;;5075751;28;20881;-65
2021/09/06 01:36:03;;;;;;;31.65;22.10;;;;;;;;;;5075850;28;20443;-65
2021/09/06 01:38:30;;;;;;;35.70;22.77;;;;;;;;;;5075801;28;20224;-65
2021/09/06 01:40:57;;;;;;;33.20;22.53;;;;;;;;;;5075352;28;21009;-65
2021/09/06 01:43:26;;;;;;;35.13;22.67;;;;;;;;;;5075573;28;20439;-66
2021/09/06 01:45:53;;;;;;;38.23;23.73;;;;;;;;;;5075265;28;20496;-65
2021/09/06 01:48:20;;;;;;;39.92;24.75;;;;;;;;;;5075515;28;20471;-66
2021/09/06 01:50:48;;;;;;;30.63;22.75;;;;;;;;;;5075385;28;20205;-65
2021/09/06 01:53:15;;;;;;;34.40;22.35;;;;;;;;;;5075443;28;20239;-65
2021/09/06 01:55:42;;;;;;;31.88;22.00;;;;;;;;;;5075386;28;20266;-65
2021/09/06 01:58:09;;;;;;;37.05;23.50;;;;;;;;;;5075439;28;20634;-65
2021/09/06 02:00:38;;;;;;;35.38;23.05;;;;;;;;;;5076807;28;20251;-65
2021/09/06 02:03:05;;;;;;;35.70;23.75;;;;;;;;;;5075143;28;20548;-65
2021/09/06 02:05:32;;;;;;;34.70;22.80;;;;;;;;;;5074855;28;20193;-65
2021/09/06 02:08:00;;;;;;;30.83;21.73;;;;;;;;;;5075046;28;20493;-65
2021/09/06 02:10:27;;;;;;;34.28;22.50;;;;;;;;;;5075863;28;20204;-66
2021/09/06 02:12:54;;;;;;;29.77;21.52;;;;;;;;;;5079818;28;20363;-65
2021/09/06 02:15:22;;;;;;;29.75;21.17;;;;;;;;;;5076181;28;20270;-66
2021/09/06 02:17:50;;;;;;;33.65;22.20;;;;;;;;;;5074981;28;20224;-65
2021/09/06 02:20:17;;;;;;;32.25;21.13;;;;;;;;;;5074983;28;20205;-66
2021/09/06 02:22:45;;;;;;;36.00;22.40;;;;;;;;;;5074700;28;20278;-65
2021/09/06 02:25:12;;;;;;;46.10;25.30;;;;;;;;;;5074854;28;20496;-66
2021/09/06 02:27:40;;;;;;;72.10;30.95;;;;;;;;;;5074370;28;20451;-65
2021/09/06 02:30:07;;;;;;;53.17;29.10;;;;;;;;;;5074327;28;20201;-65
2021/09/06 02:32:35;;;;;;;54.30;30.37;;;;;;;;;;5074607;28;20476;-64
2021/09/06 02:35:03;;;;;;;61.40;32.92;;;;;;;;;;5074105;28;20505;-64
2021/09/06 02:37:31;;;;;;;53.80;30.17;;;;;;;;;;5074226;28;20541;-65
2021/09/06 02:39:58;;;;;;;49.00;28.17;;;;;;;;;;5074231;28;20500;-65
2021/09/06 02:42:25;;;;;;;55.37;30.37;;;;;;;;;;5074169;28;20503;-65
2021/09/06 02:44:52;;;;;;;57.97;29.43;;;;;;;;;;5074302;28;20452;-65
2021/09/06 02:47:19;;;;;;;53.93;29.80;;;;;;;;;;5074145;28;20509;-65
2021/09/06 02:49:47;;;;;;;53.70;29.50;;;;;;;;;;5074214;28;20465;-65
2021/09/06 02:52:15;;;;;;;52.25;28.17;;;;;;;;;;5073939;28;20451;-65
2021/09/06 02:54:43;;;;;;;58.13;29.43;;;;;;;;;;5073694;28;20704;-65
2021/09/06 02:57:10;;;;;;;51.97;28.70;;;;;;;;;;5074112;28;20497;-65
2021/09/06 02:59:37;;;;;;;44.23;26.30;;;;;;;;;;5074037;28;20467;-65
2021/09/06 03:02:05;;;;;;;42.97;26.77;;;;;;;;;;5073942;28;20530;-65
2021/09/06 03:04:32;;;;;;;45.47;26.37;;;;;;;;;;5073961;28;20500;-65
2021/09/06 03:06:59;;;;;;;44.93;25.60;;;;;;;;;;5073938;28;20505;-64
2021/09/06 03:09:28;;;;;;;43.17;27.70;;;;;;;;;;5073463;28;20978;-65
2021/09/06 03:11:55;;;;;;;40.15;25.20;;;;;;;;;;5073926;28;20451;-65
2021/09/06 03:14:23;;;;;;;41.70;25.50;;;;;;;;;;5073701;28;20294;-65
2021/09/06 03:16:50;;;;;;;43.10;26.33;;;;;;;;;;5073487;28;20443;-64
2021/09/06 03:19:18;;;;;;;50.15;25.40;;;;;;;;;;5074527;28;20228;-65
2021/09/06 03:21:45;;;;;;;41.55;23.40;;;;;;;;;;5073899;28;20204;-64
2021/09/06 03:24:12;;;;;;;39.10;23.50;;;;;;;;;;5073644;28;20200;-65
2021/09/06 03:26:41;;;;;;;37.80;22.75;;;;;;;;;;5075612;28;20447;-65
2021/09/06 03:29:08;;;;;;;48.28;21.60;;;;;;;;;;5083462;28;20217;-65
2021/09/06 03:31:35;;;;;;;37.45;21.70;;;;;;;;;;5092536;28;20583;-65
2021/09/06 03:34:03;;;;;;;36.65;22.38;;;;;;;;;;5093012;28;20255;-65
2021/09/06 03:36:30;;;;;;;39.87;21.10;;;;;;;;;;5081126;28;20262;-65
2021/09/06 03:38:57;;;;;;;40.35;21.80;;;;;;;;;;5073936;28;20532;-65
2021/09/06 03:41:25;;;;;;;67.40;21.45;;;;;;;;;;5073621;28;20672;-65
2021/09/06 03:43:53;;;;;;;79.18;22.27;;;;;;;;;;5073301;28;20201;-65
2021/09/06 03:46:21;;;;;;;64.05;21.08;;;;;;;;;;5074119;28;20197;-65
2021/09/06 03:48:48;;;;;;;52.05;21.08;;;;;;;;;;5073239;28;20633;-65
2021/09/06 03:51:15;;;;;;;54.20;20.60;;;;;;;;;;5073244;28;20266;-64
2021/09/06 03:53:43;;;;;;;57.38;21.08;;;;;;;;;;5073428;28;20513;-65
2021/09/06 03:56:10;;;;;;;54.37;17.63;;;;;;;;;;5072923;28;20266;-65
2021/09/06 03:58:37;;;;;;;43.33;18.58;;;;;;;;;;5073222;28;20463;-65
2021/09/06 04:01:06;;;;;;;66.22;16.75;;;;;;;;;;5072969;28;20209;-65
2021/09/06 04:03:33;;;;;;;109.75;19.02;;;;;;;;;;5072974;28;20197;-63
2021/09/06 04:08:32;;;;;;;110.13;20.05;;;;;;;;;;5132757;27;20588;-64
2021/09/06 04:11:00;;;;;;;77.83;19.50;;;;;;;;;;5131896;28;20260;-64
2021/09/06 04:13:27;;;;;;;57.20;19.42;;;;;;;;;;5131433;28;20955;-66
2021/09/06 04:15:54;;;;;;;74.90;18.23;;;;;;;;;;5131829;28;20259;-64
2021/09/06 04:18:21;;;;;;;132.68;21.35;;;;;;;;;;5131692;28;20268;-65
2021/09/06 04:20:49;;;;;;;111.18;23.13;;;;;;;;;;5131679;28;20572;-64
2021/09/06 04:23:16;;;;;;;49.05;18.05;;;;;;;;;;5131399;28;20568;-66
2021/09/06 04:25:45;;;;;;;45.60;19.63;;;;;;;;;;5131948;28;20206;-66
2021/09/06 04:28:12;;;;;;;44.22;19.38;;;;;;;;;;5131320;28;20223;-65
2021/09/06 04:30:39;;;;;;;41.20;18.88;;;;;;;;;;5131717;28;20252;-66
2021/09/06 04:33:06;;;;;;;36.10;17.70;;;;;;;;;;5131300;28;20604;-64
2021/09/06 04:35:34;;;;;;;31.83;18.40;;;;;;;;;;5131638;28;20210;-65
2021/09/06 04:38:01;;;;;;;38.53;18.53;;;;;;;;;;5131276;28;20211;-63
2021/09/06 04:40:29;;;;;;;33.92;18.42;;;;;;;;;;5131287;28;20560;-64
2021/09/06 04:42:58;;;;;;;33.00;17.13;;;;;;;;;;5131295;28;20278;-65
2021/09/06 04:45:25;;;;;;;42.37;17.53;;;;;;;;;;5131041;28;20203;-64
2021/09/06 04:47:53;;;;;;;55.58;15.80;;;;;;;;;;5130874;28;20533;-65
2021/09/06 04:50:20;;;;;;;37.40;16.17;;;;;;;;;;5131956;28;20203;-65
2021/09/06 04:52:47;;;;;;;48.70;15.37;;;;;;;;;;5131437;28;20255;-66
2021/09/06 04:55:14;;;;;;;34.20;15.25;;;;;;;;;;5130989;28;20985;-65
2021/09/06 04:57:42;;;;;;;39.00;14.90;;;;;;;;;;5131054;28;20279;-64
2021/09/06 05:00:11;;;;;;;34.30;14.55;;;;;;;;;;5131443;28;20199;-66
2021/09/06 05:02:38;;;;;;;28.07;15.30;;;;;;;;;;5133746;28;20203;-65
2021/09/06 05:05:06;;;;;;;77.03;14.30;;;;;;;;;;5135269;28;20445;-66
2021/09/06 05:07:33;;;;;;;29.03;13.53;;;;;;;;;;5133092;28;20227;-65
2021/09/06 05:10:00;;;;;;;26.15;14.63;;;;;;;;;;5130292;28;20546;-66
2021/09/06 05:12:28;;;;;;;31.10;14.10;;;;;;;;;;5130531;28;20203;-65
2021/09/06 05:14:55;;;;;;;25.48;15.10;;;;;;;;;;5131333;28;20940;-66
2021/09/06 05:17:23;;;;;;;29.55;15.23;;;;;;;;;;5130520;28;20295;-66
2021/09/06 05:19:51;;;;;;;23.67;15.73;;;;;;;;;;5117151;28;20256;-66
2021/09/06 05:22:18;;;;;;;26.23;14.30;;;;;;;;;;5120153;28;20238;-66
2021/09/06 05:24:45;;;;;;;24.40;14.63;;;;;;;;;;5119636;28;20446;-66
2021/09/06 05:27:13;;;;;;;23.70;14.80;;;;;;;;;;5120608;28;20512;-64
2021/09/06 05:29:40;;;;;;;29.23;13.83;;;;;;;;;;5124389;28;20465;-65
2021/09/06 05:32:08;;;;;;;33.17;14.03;;;;;;;;;;5120196;28;20441;-66
2021/09/06 05:34:36;;;;;;;22.20;13.77;;;;;;;;;;5119905;28;20441;-65
2021/09/06 05:37:04;;;;;;;37.10;13.50;;;;;;;;;;5116979;28;20582;-66
2021/09/06 05:39:31;;;;;;;22.30;13.03;;;;;;;;;;5116224;28;20487;-65
2021/09/06 05:41:58;;;;;;;23.07;13.00;;;;;;;;;;5116235;28;20449;-66
2021/09/06 05:44:26;;;;;;;25.37;12.77;;;;;;;;;;5116125;28;20940;-66
2021/09/06 05:46:53;;;;;;;38.17;12.80;;;;;;;;;;5116326;28;22348;-66
2021/09/06 05:49:20;;;;;;;17.17;11.97;;;;;;;;;;5116449;28;20514;-66
2021/09/06 05:51:49;;;;;;;19.63;13.03;;;;;;;;;;5117499;28;20528;-66
2021/09/06 05:54:16;;;;;;;17.87;12.27;;;;;;;;;;5116095;28;20960;-65
2021/09/06 05:56:43;;;;;;;26.27;12.27;;;;;;;;;;5116705;28;20441;-66
2021/09/06 05:59:11;;;;;;;20.30;13.73;;;;;;;;;;5116418;28;20860;-65
2021/09/06 06:01:38;;;;;;;24.67;13.50;;;;;;;;;;5116238;28;20445;-65
2021/09/06 06:04:05;;;;;;;26.33;12.57;;;;;;;;;;5116374;28;20446;-65
2021/09/06 06:06:32;;;;;;;21.37;12.93;;;;;;;;;;5115686;28;20453;-65
2021/09/06 06:09:01;;;;;;;17.00;12.37;;;;;;;;;;5115977;28;20996;-66
2021/09/06 06:11:28;;;;;;;16.30;12.63;;;;;;;;;;5115918;28;20441;-65
2021/09/06 06:13:55;;;;;;;22.57;11.30;;;;;;;;;;5115782;28;20486;-65
2021/09/06 06:16:23;;;;;;;13.50;11.50;;;;;;;;;;5116169;28;20441;-65
2021/09/06 06:18:50;;;;;;;18.00;11.83;;;;;;;;;;5118488;28;20465;-65
2021/09/06 06:21:17;;;;;;;21.70;11.27;;;;;;;;;;5118656;28;20932;-65
2021/09/06 06:23:44;;;;;;;22.20;11.83;;;;;;;;;;5117124;28;20441;-64
2021/09/06 06:26:13;;;;;;;14.47;11.43;;;;;;;;;;5116037;28;20503;-65
2021/09/06 06:28:40;;;;;;;22.13;13.10;;;;;;;;;;5115980;28;20993;-63
2021/09/06 06:31:07;;;;;;;15.00;11.80;;;;;;;;;;5115945;28;20494;-64
2021/09/06 06:33:35;;;;;;;21.20;11.97;;;;;;;;;;5115780;28;20929;-64
2021/09/06 06:36:03;;;;;;;57.43;14.17;;;;;;;;;;5115753;28;20502;-65
2021/09/06 06:38:30;;;;;;;34.77;12.80;;;;;;;;;;5115437;28;20454;-64
2021/09/06 06:40:58;;;;;;;15.07;12.30;;;;;;;;;;5115582;28;20510;-65
2021/09/06 06:43:26;;;;;;;16.83;12.50;;;;;;;;;;5115375;28;20441;-65
2021/09/06 06:45:54;;;;;;;41.77;13.10;;;;;;;;;;5118343;28;20438;-66
2021/09/06 06:48:21;;;;;;;18.23;13.53;;;;;;;;;;5119617;28;20572;-63
2021/09/06 06:50:49;;;;;;;20.87;13.90;;;;;;;;;;5115788;28;20506;-65
2021/09/06 06:53:16;;;;;;;32.47;13.90;;;;;;;;;;5115595;28;20468;-65
2021/09/06 06:55:43;;;;;;;16.67;12.87;;;;;;;;;;5115714;28;20446;-64
2021/09/06 06:58:11;;;;;;;22.23;14.90;;;;;;;;;;5115906;28;20465;-64
2021/09/06 07:00:39;;;;;;;18.70;14.30;;;;;;;;;;5116615;28;20494;-64
2021/09/06 07:03:06;;;;;;;24.67;14.00;;;;;;;;;;5116139;28;20442;-64
2021/09/06 07:05:34;;;;;;;19.70;14.00;;;;;;;;;;5115076;28;20494;-64
2021/09/06 07:08:01;;;;;;;22.53;14.97;;;;;;;;;;5114886;28;20497;-64
2021/09/06 07:10:28;;;;;;;17.70;13.30;;;;;;;;;;5115394;28;20502;-64
2021/09/06 07:12:56;;;;;;;26.90;15.07;;;;;;;;;;5114887;28;20989;-64
2021/09/06 07:15:23;;;;;;;17.67;13.90;;;;;;;;;;5114999;28;20441;-64
2021/09/06 07:17:51;;;;;;;16.97;13.87;;;;;;;;;;5115079;28;20461;-65
2021/09/06 07:20:19;;;;;;;22.20;16.10;;;;;;;;;;5114546;28;20442;-64
2021/09/06 07:22:46;;;;;;;21.83;15.50;;;;;;;;;;5114527;28;20471;-64
2021/09/06 07:25:13;;;;;;;20.97;16.70;;;;;;;;;;5114958;28;20449;-64
2021/09/06 07:27:41;;;;;;;19.37;15.63;;;;;;;;;;5114761;28;20473;-64
2021/09/06 07:30:09;;;;;;;22.70;17.67;;;;;;;;;;5114391;28;20952;-64
2021/09/06 07:32:36;;;;;;;17.97;14.17;;;;;;;;;;5115089;28;20441;-63
2021/09/06 07:35:05;;;;;;;16.63;14.23;;;;;;;;;;5114427;28;20482;-65
2021/09/06 07:37:32;;;;;;;20.40;12.57;;;;;;;;;;5114662;28;20446;-64
2021/09/06 07:40:00;;;;;;;15.53;14.00;;;;;;;;;;5114268;28;20522;-64
2021/09/06 07:42:27;;;;;;;18.63;15.77;;;;;;;;;;5114498;28;20495;-64
2021/09/06 07:44:54;;;;;;;19.80;16.33;;;;;;;;;;5114420;28;20822;-63
2021/09/06 07:47:21;;;;;;;18.43;15.00;;;;;;;;;;5114476;28;20441;-63
2021/09/06 07:49:49;;;;;;;16.90;14.33;;;;;;;;;;5114430;28;20441;-65
2021/09/06 07:52:17;;;;;;;18.33;14.90;;;;;;;;;;5113231;28;20441;-63
2021/09/06 07:54:44;;;;;;;16.90;14.87;;;;;;;;;;5114485;28;20497;-64
2021/09/06 07:57:12;;;;;;;20.50;17.17;;;;;;;;;;5114425;28;20453;-64
2021/09/06 07:59:39;;;;;;;20.97;16.77;;;;;;;;;;5114130;28;21041;-65
2021/09/06 08:02:07;;;;;;;18.50;16.00;;;;;;;;;;5106920;22;20582;-58
2021/09/06 08:04:34;;;;;;;21.70;16.67;;;;;;;;;;5072926;28;20845;-58
2021/09/06 08:07:01;;;;;;;22.10;17.57;;;;;;;;;;5073777;28;20518;-57
2021/09/06 08:09:30;;;;;;;19.87;16.10;;;;;;;;;;5072977;28;20552;-58
2021/09/06 08:11:57;;;;;;;23.63;17.43;;;;;;;;;;5072953;28;20532;-58
2021/09/06 08:14:27;;;;;;;22.10;17.83;;;;;;;;;;5072475;28;20454;-58
2021/09/06 08:16:54;;;;;;;23.33;18.33;;;;;;;;;;5072688;28;20482;-58
2021/09/06 08:19:21;;;;;;;20.57;17.30;;;;;;;;;;5072817;28;20439;-58
2021/09/06 08:21:49;;;;;;;19.93;16.80;;;;;;;;;;5072742;28;20467;-58
2021/09/06 08:24:16;;;;;;;21.40;17.80;;;;;;;;;;5072631;28;20447;-58
2021/09/06 08:26:45;;;;;;;20.60;17.80;;;;;;;;;;5072371;28;20512;-58
2021/09/06 08:29:12;;;;;;;22.87;18.20;;;;;;;;;;5072760;28;20558;-58
2021/09/06 08:31:39;;;;;;;22.27;18.00;;;;;;;;;;5072384;28;20471;-58
2021/09/06 08:34:06;;;;;;;22.87;19.43;;;;;;;;;;5072888;28;20448;-59
2021/09/06 08:36:34;;;;;;;22.90;18.57;;;;;;;;;;5072940;28;20455;-59
2021/09/06 08:39:01;;;;;;;24.57;19.20;;;;;;;;;;5072760;28;20571;-59
2021/09/06 08:41:28;;;;;;;24.73;20.17;;;;;;;;;;5072292;28;20506;-58
2021/09/06 08:43:58;;;;;;;22.33;18.83;;;;;;;;;;5072461;28;20496;-58
2021/09/06 08:46:25;;;;;;;28.43;18.17;;;;;;;;;;5072783;28;20444;-58
2021/09/06 08:48:53;;;;;;;25.47;18.80;;;;;;;;;;5072276;28;20521;-59
2021/09/06 08:51:20;;;;;;;24.67;19.40;;;;;;;;;;5072525;28;20474;-58
2021/09/06 08:53:47;;;;;;;23.27;18.63;;;;;;;;;;5073493;28;20862;-58
2021/09/06 08:56:17;;;;;;;26.63;21.23;;;;;;;;;;5076557;28;20505;-58
2021/09/06 08:58:44;;;;;;;26.30;20.10;;;;;;;;;;5075992;28;20458;-58
2021/09/06 09:01:13;;;;;;;28.20;21.40;;;;;;;;;;5075999;28;20532;-58
2021/09/06 09:03:40;;;;;;;28.20;21.07;;;;;;;;;;5076015;28;20461;-58
2021/09/06 09:06:08;;;;;;;33.87;23.73;;;;;;;;;;5075981;28;20989;-58
2021/09/06 09:08:35;;;;;;;38.73;24.33;;;;;;;;;;5075722;28;20528;-58
2021/09/06 09:11:03;;;;;;;31.53;22.90;;;;;;;;;;5075850;28;20528;-58
2021/09/06 09:13:31;;;;;;;30.67;21.90;;;;;;;;;;5076124;28;20451;-58
2021/09/06 09:15:58;;;;;;;29.87;22.73;;;;;;;;;;5075977;28;20446;-58
2021/09/06 09:18:28;;;;;;;29.93;22.93;;;;;;;;;;5076000;28;20439;-58
2021/09/06 09:20:59;;;;;;;29.33;22.20;;;;;;;;;;5077126;28;20855;-58
2021/09/06 09:23:36;;;;;;;33.43;22.80;;;;;;;;;;5076355;28;20451;-58
2021/09/06 09:26:04;;;;;;;30.90;21.70;;;;;;;;;;5075938;28;20443;-58
2021/09/06 09:28:32;;;;;;;26.30;20.50;;;;;;;;;;5075314;28;20471;-58
2021/09/06 09:31:06;;;;;;;26.13;21.37;;;;;;;;;;5075804;28;20513;-58
2021/09/06 09:33:39;;;;;;;24.70;19.13;;;;;;;;;;5076175;28;20435;-58
2021/09/06 09:36:06;;;;;;;25.00;20.33;;;;;;;;;;5075860;28;20798;-58
2021/09/06 09:38:37;;;;;;;27.47;20.77;;;;;;;;;;5076121;28;20443;-58
2021/09/06 09:41:11;;;;;;;26.90;20.07;;;;;;;;;;5075560;28;20983;-58
2021/09/06 09:43:39;;;;;;;29.33;20.20;;;;;;;;;;5076101;28;20481;-58
2021/09/06 09:46:06;;;;;;;24.50;18.40;;;;;;;;;;5076389;28;20497;-58
2021/09/06 09:48:35;;;;;;;21.90;17.83;;;;;;;;;;5075854;28;20474;-58
2021/09/06 09:51:02;;;;;;;26.43;18.60;;;;;;;;;;5076610;28;20962;-58
2021/09/06 09:53:30;;;;;;;25.07;19.37;;;;;;;;;;5077524;28;20447;-57
2021/09/06 09:55:57;;;;;;;25.57;18.90;;;;;;;;;;5076693;28;20454;-57
2021/09/06 09:58:24;;;;;;;24.87;20.73;;;;;;;;;;5075723;28;20859;-59
2021/09/06 10:00:51;;;;;;;21.97;18.60;;;;;;;;;;5075635;28;20479;-58
2021/09/06 10:03:19;;;;;;;22.33;18.60;;;;;;;;;;5075584;28;20996;-58
2021/09/06 10:05:50;;;;;;;21.27;17.97;;;;;;;;;;5075930;28;20509;-58
2021/09/06 10:08:18;;;;;;;28.17;20.47;;;;;;;;;;5074922;28;20529;-58
2021/09/06 10:10:45;;;;;;;23.50;17.90;;;;;;;;;;5075442;28;20521;-58
2021/09/06 10:13:14;;;;;;;17.37;14.60;;;;;;;;;;5075370;28;20448;-58
2021/09/06 10:15:42;;;;;;;17.77;15.60;;;;;;;;;;5075160;28;20524;-58
2021/09/06 10:18:15;;;;;;;16.90;14.07;;;;;;;;;;5074899;28;20456;-58
2021/09/06 10:20:43;;;;;;;18.80;15.07;;;;;;;;;;5075099;28;20461;-57
2021/09/06 10:23:13;;;;;;;16.10;13.30;;;;;;;;;;5075434;28;20453;-58
2021/09/06 10:25:41;;;;;;;12.93;11.00;;;;;;;;;;5076238;28;20439;-57
2021/09/06 10:28:11;;;;;;;15.27;12.50;;;;;;;;;;5075091;28;20984;-60
2021/09/06 10:30:39;;;;;;;17.43;14.73;;;;;;;;;;5075203;28;20526;-59
2021/09/06 10:33:07;;;;;;;17.80;15.17;;;;;;;;;;5075317;28;20540;-59
2021/09/06 10:35:35;;;;;;;21.50;15.83;;;;;;;;;;5075150;28;20454;-58
2021/09/06 10:38:08;;;;;;;17.60;15.43;;;;;;;;;;5075555;28;20513;-59
2021/09/06 10:40:37;;;;;;;18.90;15.10;;;;;;;;;;5075141;28;20459;-57
2021/09/06 10:43:17;;;;;;;18.47;13.90;;;;;;;;;;5075370;28;20440;-59
2021/09/06 10:45:45;;;;;;;18.60;14.50;;;;;;;;;;5074846;28;20896;-58
2021/09/06 10:48:17;;;;;;;15.60;13.50;;;;;;;;;;5074609;28;20497;-58
2021/09/06 10:50:45;;;;;;;14.57;12.73;;;;;;;;;;5074449;28;21036;-58
2021/09/06 10:53:16;;;;;;;18.67;15.87;;;;;;;;;;5074424;28;21022;-58
2021/09/06 10:55:47;;;;;;;18.93;16.83;;;;;;;;;;5074703;28;20875;-58
2021/09/06 10:58:15;;;;;;;27.93;17.80;;;;;;;;;;5074176;28;20438;-58
2021/09/06 11:00:42;;;;;;;21.63;18.47;;;;;;;;;;5074572;28;20484;-59
2021/09/06 11:03:09;;;;;;;22.93;17.93;;;;;;;;;;5074452;28;20503;-57
2021/09/06 11:05:37;;;;;;;24.17;17.60;;;;;;;;;;5073434;28;20495;-57
2021/09/06 11:08:08;;;;;;;21.90;17.10;;;;;;;;;;5073640;28;20453;-58
2021/09/06 11:10:35;;;;;;;24.63;18.33;;;;;;;;;;5073295;28;20564;-60
2021/09/06 11:13:04;;;;;;;18.33;16.37;;;;;;;;;;5073839;28;20479;-58
2021/09/06 11:15:32;;;;;;;22.77;18.70;;;;;;;;;;5077271;28;20440;-58
2021/09/06 11:18:00;;;;;;;19.67;16.33;;;;;;;;;;5076138;28;20586;-57
2021/09/06 11:20:28;;;;;;;20.20;18.00;;;;;;;;;;5078072;28;20449;-59
2021/09/06 11:22:59;;;;;;;20.33;16.50;;;;;;;;;;5074229;28;20460;-58
2021/09/06 11:25:27;;;;;;;19.60;16.40;;;;;;;;;;5073714;28;20534;-59
2021/09/06 11:27:54;;;;;;;26.17;18.20;;;;;;;;;;5073666;28;20520;-59
2021/09/06 11:30:24;;;;;;;24.30;17.70;;;;;;;;;;5073053;28;20479;-59
2021/09/06 11:32:51;;;;;;;20.57;18.23;;;;;;;;;;5073502;28;20447;-58
2021/09/06 11:35:20;;;;;;;21.57;17.27;;;;;;;;;;5073291;28;20860;-59
2021/09/06 11:37:49;;;;;;;24.67;18.73;;;;;;;;;;5074177;28;20977;-58
2021/09/06 11:40:16;;;;;;;21.73;15.90;;;;;;;;;;5073652;28;20446;-59
2021/09/06 11:42:45;;;;;;;21.20;18.13;;;;;;;;;;5073462;28;20447;-58
2021/09/06 11:45:14;;;;;;;21.13;16.90;;;;;;;;;;5073507;28;21014;-61
2021/09/06 11:47:42;;;;;;;22.53;17.57;;;;;;;;;;5073315;28;20453;-57
2021/09/06 11:50:11;;;;;;;19.23;17.13;;;;;;;;;;5073061;28;20544;-58
2021/09/06 11:52:40;;;;;;;20.07;16.43;;;;;;;;;;5073090;28;20446;-59
2021/09/06 11:55:12;;;;;;;20.77;16.77;;;;;;;;;;5073165;28;20459;-58
2021/09/06 11:57:39;;;;;;;25.93;18.30;;;;;;;;;;5073605;28;20450;-57
2021/09/06 12:00:07;;;;;;;20.30;17.20;;;;;;;;;;5072787;28;20939;-57
2021/09/06 12:02:34;;;;;;;22.13;18.67;;;;;;;;;;5072666;28;20476;-57
2021/09/06 12:05:11;;;;;;;20.60;17.20;;;;;;;;;;5073079;28;20463;-57
2021/09/06 12:07:46;;;;;;;20.10;18.00;;;;;;;;;;5072860;28;20518;-57
2021/09/06 12:10:24;;;;;;;17.83;15.27;;;;;;;;;;5072262;28;20613;-58
2021/09/06 12:12:58;;;;;;;17.10;14.63;;;;;;;;;;5072864;28;20433;-57
2021/09/06 12:15:25;;;;;;;15.77;12.97;;;;;;;;;;5073329;28;20459;-57
2021/09/06 12:17:52;;;;;;;13.60;12.20;;;;;;;;;;5073459;28;20459;-57
2021/09/06 12:20:27;;;;;;;15.23;11.87;;;;;;;;;;5073274;28;20435;-58
2021/09/06 12:22:54;;;;;;;12.50;10.73;;;;;;;;;;5072754;28;20467;-57
2021/09/06 12:25:25;;;;;;;17.80;12.10;;;;;;;;;;5073105;28;20451;-58
2021/09/06 12:27:52;;;;;;;13.53;11.07;;;;;;;;;;5073165;28;20532;-58
2021/09/06 12:30:20;;;;;;;14.13;9.90;;;;;;;;;;5076454;28;20532;-58
2021/09/06 12:32:47;;;;;;;12.50;10.87;;;;;;;;;;5076645;28;20504;-59
2021/09/06 12:35:14;;;;;;;13.03;10.90;;;;;;;;;;5076760;28;20459;-59
2021/09/06 12:37:45;;;;;;;15.50;11.43;;;;;;;;;;5077211;28;20458;-59
2021/09/06 12:40:13;;;;;;;13.60;11.13;;;;;;;;;;5076495;28;20423;-58
2021/09/06 12:42:40;;;;;;;13.03;10.03;;;;;;;;;;5076492;28;20476;-57
2021/09/06 12:45:08;;;;;;;12.00;10.30;;;;;;;;;;5076426;28;20455;-58
2021/09/06 12:47:35;;;;;;;11.17;9.73;;;;;;;;;;5076075;28;20443;-58
2021/09/06 12:50:03;;;;;;;10.47;9.30;;;;;;;;;;5075859;28;20583;-58
2021/09/06 12:52:30;;;;;;;9.97;8.90;;;;;;;;;;5075753;28;21041;-58
2021/09/06 12:54:59;;;;;;;9.80;8.63;;;;;;;;;;5075906;28;20856;-58
2021/09/06 12:57:26;;;;;;;9.20;7.40;;;;;;;;;;5076181;28;20524;-58
2021/09/06 12:59:53;;;;;;;8.53;7.60;;;;;;;;;;5076251;28;20443;-58
2021/09/06 13:02:21;;;;;;;8.43;6.90;;;;;;;;;;5075644;28;20489;-57
2021/09/06 13:04:48;;;;;;;7.00;6.30;;;;;;;;;;5076012;28;20438;-57
2021/09/06 13:07:15;;;;;;;8.13;6.93;;;;;;;;;;5075928;28;20454;-57
2021/09/06 13:09:42;;;;;;;8.87;6.87;;;;;;;;;;5075843;28;20488;-57
2021/09/06 13:12:11;;;;;;;6.80;6.10;;;;;;;;;;5075502;28;20474;-57
2021/09/06 13:14:38;;;;;;;7.63;6.80;;;;;;;;;;5075733;28;20503;-56
2021/09/06 13:17:06;;;;;;;9.60;7.80;;;;;;;;;;5075606;28;20458;-57
2021/09/06 13:19:33;;;;;;;9.23;7.70;;;;;;;;;;5075698;28;20445;-55
2021/09/06 13:22:01;;;;;;;10.07;7.50;;;;;;;;;;5075782;28;20572;-57
2021/09/06 13:24:28;;;;;;;11.67;9.00;;;;;;;;;;5075837;28;20453;-58
2021/09/06 13:26:56;;;;;;;10.13;8.57;;;;;;;;;;5075431;28;20552;-58
2021/09/06 13:29:25;;;;;;;10.50;8.93;;;;;;;;;;5075631;28;20486;-58
2021/09/06 13:31:53;;;;;;;12.43;8.30;;;;;;;;;;5075781;28;20537;-57
2021/09/06 13:34:20;;;;;;;10.27;9.17;;;;;;;;;;5075592;28;20446;-58
2021/09/06 13:36:48;;;;;;;10.97;9.73;;;;;;;;;;5075795;28;20476;-58
2021/09/06 13:39:16;;;;;;;10.73;8.90;;;;;;;;;;5074782;28;20686;-58
2021/09/06 13:41:43;;;;;;;13.67;10.37;;;;;;;;;;5075323;28;20484;-57
2021/09/06 13:44:10;;;;;;;12.33;9.97;;;;;;;;;;5075364;28;20446;-59
2021/09/06 13:46:39;;;;;;;11.63;7.80;;;;;;;;;;5075479;28;20493;-59
2021/09/06 13:49:06;;;;;;;12.00;9.53;;;;;;;;;;5075195;28;20504;-60
2021/09/06 13:51:33;;;;;;;9.17;8.20;;;;;;;;;;5075752;28;20523;-57
2021/09/06 13:54:01;;;;;;;9.23;8.27;;;;;;;;;;5076027;28;21010;-57
2021/09/06 13:56:30;;;;;;;10.13;8.20;;;;;;;;;;5075761;28;20448;-58
2021/09/06 13:58:58;;;;;;;8.00;7.20;;;;;;;;;;5075234;28;20551;-58
2021/09/06 14:01:26;;;;;;;7.63;6.83;;;;;;;;;;5073756;28;20489;-58
2021/09/06 14:03:55;;;;;;;9.13;7.43;;;;;;;;;;5075389;28;20450;-59
2021/09/06 14:06:22;;;;;;;8.43;7.30;;;;;;;;;;5075056;28;20438;-58
2021/09/06 14:08:49;;;;;;;7.93;7.13;;;;;;;;;;5076157;28;20831;-58
2021/09/06 14:11:17;;;;;;;8.67;7.30;;;;;;;;;;5074999;28;20915;-58
2021/09/06 14:13:44;;;;;;;7.20;6.40;;;;;;;;;;5075740;28;20452;-59
2021/09/06 14:16:12;;;;;;;9.03;7.07;;;;;;;;;;5075530;28;20539;-59
2021/09/06 14:18:40;;;;;;;7.10;6.20;;;;;;;;;;5113851;22;20490;-67
2021/09/06 14:21:09;;;;;;;8.00;6.30;;;;;;;;;;5094899;28;20528;-63
2021/09/06 14:23:36;;;;;;;7.43;6.10;;;;;;;;;;5095623;28;20502;-63